Barry Square, Connecticut
Current Conditions -  °F | °C
As of 11:53 PM on Wednesday 22 Oct 2014 (Local Time) from KHFD Reporting Station
Light Rain Light Rain  
Wind Chill: 50°   Ceiling: 1700
Heat Index: 50°   Visibility: 9mi
Dew Point: 46°   Wind: 12mph
Humidity: 86%   Direction: 360°N
Pressure: 29.8"   Gusts: NA
Location:  41.7391°N, 72.6703°W
Report Text: KHFD 230353Z AUTO 36010KT 9SM -RA BKN017 OVC022 10/08 A2980 RMK AO2 LTG DSNT N SLP089 P0003 T01000078
Loading
Personal Weather Stations






























Interactive Weather Map
Tropical Storm Tracking
New forecast layout! Learn more

10-Day Weather Forecast

Advertisements
Track Severe Weather on mobile